Antonello — IKVS — position and weather

sailwx.info

Track history (hours):
 
Tides and Currents Weather Stations Pressure Air Temp Water Temp Dewpoint Dewpoint Depression Visibility Wind Speed Wind Dir Waves Ship Positions

Antonello

Last reported at 2015-Apr-21 16:32 UTC. Time now 2015-Apr-28 19:50 UTC.
Position N 38°11' E 015°35'.

Length 70 m; draft 2.5 m.

Type: Ship. MMSI: 247422000.

Date/timePositionNaut miles runAvg speedWind from/ knotsBaromVisibWave heightAir tempDewpointWater temp
2015-Apr-21 16:32N 38°11' E 015°35'8 6.2
2015-Apr-21 15:18N 38°19' E 015°36'810.5
2015-Apr-21 14:31N 38°21' E 015°27'  
2015-Apr-17 11:33N 38°38' E 015°05'11 7.9
2015-Apr-17 10:12N 38°34' E 015°17'6 9.4
2015-Apr-17 09:33N 38°32' E 015°24'9 9.3
2015-Apr-17 08:33N 38°30' E 015°36'8 0.8
2015-Apr-16 22:12N 38°27' E 015°46'0 0.0
2015-Apr-16 21:33N 38°27' E 015°46'0 0.0
2015-Apr-16 20:19N 38°27' E 015°46'0 0.0
2015-Apr-16 19:33N 38°27' E 015°46'0 0.2
2015-Apr-16 18:27N 38°27' E 015°46'7 8.3
2015-Apr-16 17:33N 38°28' E 015°37'14 0.4
2015-Apr-15 06:13N 38°15' E 015°39'  
Track history (hours):
 
Tides and Currents Weather Stations Pressure Air Temp Water Temp Dewpoint Dewpoint Depression Visibility Wind Speed Wind Dir Waves Ship Positions

Antonello

Last reported at 2015-Apr-21 16:32 UTC. Time now 2015-Apr-28 19:50 UTC.
Position N 38°11' E 015°35'.

Length 70 m; draft 2.5 m.

Type: Ship. MMSI: 247422000.

Date/timePositionNaut miles runAvg speedWind from/ knotsBaromVisibWave heightAir tempDewpointWater temp
2015-Apr-21 16:32N 38°11' E 015°35'8 6.2
2015-Apr-21 15:18N 38°19' E 015°36'810.5
2015-Apr-21 14:31N 38°21' E 015°27'  
2015-Apr-17 11:33N 38°38' E 015°05'11 7.9
2015-Apr-17 10:12N 38°34' E 015°17'6 9.4
2015-Apr-17 09:33N 38°32' E 015°24'9 9.3
2015-Apr-17 08:33N 38°30' E 015°36'8 0.8
2015-Apr-16 22:12N 38°27' E 015°46'0 0.0
2015-Apr-16 21:33N 38°27' E 015°46'0 0.0
2015-Apr-16 20:19N 38°27' E 015°46'0 0.0
2015-Apr-16 19:33N 38°27' E 015°46'0 0.2
2015-Apr-16 18:27N 38°27' E 015°46'7 8.3
2015-Apr-16 17:33N 38°28' E 015°37'14 0.4
2015-Apr-15 06:13N 38°15' E 015°39'  

Dump ship's entire track history